Terminal Aerodrome Forecast
Issued by NWS King Salmon, AK

Home | Current Version | Previous Version | Text Only | Print | Product List | Glossary On
Versions: 1 2 3 4 5 6 7 8 9 10 11 12 13 14 15 16 17 18 19 20 21 22 23 24 25 26 27 28 29 30 31 32 33 34 35 36 37 38 39 40 41 42 43 44 45 46 47
000
FTAK31 PANC 220539
TAFAKN
TAF
PAKN 220539Z 2206/2306 25005KT P6SM FEW030 SCT180
     FM221200 19004KT 2SM BR OVC003
     FM221800 20007KT P6SM VCSH SCT008 BKN015
     FM222100 22008KT P6SM -SHRA SCT015 BKN025
     FM230400 23010G16KT P6SM VCSH BKN025=

USA.gov is the U.S. government's official web portal to all federal, state and local government web resources and services.